LiveATC.Net - Listen to live air traffic control over the Internet! Contact LiveATC.net for advertising information


ICAO: MMPB  IATA: PBC   Airport: Hermanos Serdan International Airport
City: Puebla
Country: Mexico   Continent: North America
MMPB METAR Weather: MMPB 020040Z 16011KT 11SM FEW100 14/02 A3021 RMK 8/030
MMPB Flight Activity (FlightAware)
MMPB Tower
Feed Status: DOWN
Last heard on: 2015-01-30 01:28:03 (3 days 0 hours 16 minutes ago)
MMPB Tower Audio Archives
FacilityFrequency
Puebla Tower118.200


NOTICE

Unauthorized use prohibited. See LiveATC.net Terms of Service


Find LiveATC Audio Streams


Airport/ARTCC Code

Frequency
(e.g., 124.400, 128.75)
Site-wide search

Browse LiveATC Feeds
LiveATC Coverage Map
Top 50 LiveATC Feeds
Bad Weather Areas

LiveATC FAQ
Offer a LiveATC Feed
Contact LiveATC.net
Press Inquiries

LiveATC on iPhone
LiveATC on Android

LiveATC Mobile
(Mobile browser)

ATC Audio Archives
Interesting Recordings

LiveATC Forums


Home Page
About LiveATC.net
Make a Donation
LiveATC Bookstore

Terms of Use
Privacy Policy

ATC/Radar Sites
U.S. ARTCC Freqs
Canadian Air Freqs

AIRMETs/SIGMETs

FAA Airport Status
Nat'l Airspace Status
Arrival Demand Charts


Server Software By:
Icecast.org
Liquidsoap

Please make a donation to help us keep growing!